sensor_id;sensor_type;location;lat;lon;timestamp;temperature;humidity
63313;DHT22;49442;45.640;13.812;2023-08-12T00:00:09;21.90;99.90
63313;DHT22;49442;45.640;13.812;2023-08-12T00:02:43;21.90;99.90
63313;DHT22;49442;45.640;13.812;2023-08-12T00:05:09;22.00;99.90
63313;DHT22;49442;45.640;13.812;2023-08-12T00:07:39;22.00;99.90
63313;DHT22;49442;45.640;13.812;2023-08-12T00:10:07;22.00;99.90
63313;DHT22;49442;45.640;13.812;2023-08-12T00:12:33;22.00;99.90
63313;DHT22;49442;45.640;13.812;2023-08-12T00:15:00;21.90;99.90
63313;DHT22;49442;45.640;13.812;2023-08-12T00:17:26;21.90;99.90
63313;DHT22;49442;45.640;13.812;2023-08-12T00:19:52;21.70;99.90
63313;DHT22;49442;45.640;13.812;2023-08-12T00:22:17;21.60;99.90
63313;DHT22;49442;45.640;13.812;2023-08-12T00:24:43;21.50;99.90
63313;DHT22;49442;45.640;13.812;2023-08-12T00:27:10;21.50;99.90
63313;DHT22;49442;45.640;13.812;2023-08-12T00:29:36;21.50;99.90
63313;DHT22;49442;45.640;13.812;2023-08-12T00:32:02;21.40;99.90
63313;DHT22;49442;45.640;13.812;2023-08-12T00:34:27;21.40;99.90
63313;DHT22;49442;45.640;13.812;2023-08-12T00:36:53;21.30;99.90
63313;DHT22;49442;45.640;13.812;2023-08-12T00:39:19;21.30;99.90
63313;DHT22;49442;45.640;13.812;2023-08-12T00:41:44;21.10;99.90
63313;DHT22;49442;45.640;13.812;2023-08-12T00:44:10;21.00;99.90
63313;DHT22;49442;45.640;13.812;2023-08-12T00:46:37;21.00;99.90
63313;DHT22;49442;45.640;13.812;2023-08-12T00:49:04;21.00;99.90
63313;DHT22;49442;45.640;13.812;2023-08-12T00:51:30;20.90;99.90
63313;DHT22;49442;45.640;13.812;2023-08-12T00:53:58;20.90;99.90
63313;DHT22;49442;45.640;13.812;2023-08-12T00:56:24;20.90;99.90
63313;DHT22;49442;45.640;13.812;2023-08-12T00:58:50;21.00;99.90
63313;DHT22;49442;45.640;13.812;2023-08-12T01:01:15;21.00;99.90
63313;DHT22;49442;45.640;13.812;2023-08-12T01:03:43;21.00;99.90
63313;DHT22;49442;45.640;13.812;2023-08-12T01:06:09;21.00;99.90
63313;DHT22;49442;45.640;13.812;2023-08-12T01:08:35;20.90;99.90
63313;DHT22;49442;45.640;13.812;2023-08-12T01:11:14;20.80;99.90
63313;DHT22;49442;45.640;13.812;2023-08-12T01:13:57;20.80;99.90
63313;DHT22;49442;45.640;13.812;2023-08-12T01:16:26;20.80;99.90
63313;DHT22;49442;45.640;13.812;2023-08-12T01:18:54;20.80;99.90
63313;DHT22;49442;45.640;13.812;2023-08-12T01:21:21;21.00;99.90
63313;DHT22;49442;45.640;13.812;2023-08-12T01:23:47;21.00;99.90
63313;DHT22;49442;45.640;13.812;2023-08-12T01:26:13;20.90;99.90
63313;DHT22;49442;45.640;13.812;2023-08-12T01:28:39;20.70;99.90
63313;DHT22;49442;45.640;13.812;2023-08-12T01:31:45;20.70;99.90
63313;DHT22;49442;45.640;13.812;2023-08-12T01:34:41;20.70;99.90
63313;DHT22;49442;45.640;13.812;2023-08-12T01:36:59;20.60;99.90
63313;DHT22;49442;45.640;13.812;2023-08-12T01:39:26;20.70;99.90
63313;DHT22;49442;45.640;13.812;2023-08-12T01:41:54;20.50;99.90
63313;DHT22;49442;45.640;13.812;2023-08-12T01:44:20;20.40;99.90
63313;DHT22;49442;45.640;13.812;2023-08-12T01:46:46;20.40;99.90
63313;DHT22;49442;45.640;13.812;2023-08-12T01:49:12;20.50;99.90
63313;DHT22;49442;45.640;13.812;2023-08-12T01:51:37;20.60;99.90
63313;DHT22;49442;45.640;13.812;2023-08-12T01:54:03;20.60;99.90
63313;DHT22;49442;45.640;13.812;2023-08-12T01:56:29;20.70;99.90
63313;DHT22;49442;45.640;13.812;2023-08-12T01:58:54;20.70;99.90
63313;DHT22;49442;45.640;13.812;2023-08-12T02:01:20;20.60;99.90
63313;DHT22;49442;45.640;13.812;2023-08-12T02:03:45;20.70;99.90
63313;DHT22;49442;45.640;13.812;2023-08-12T02:06:11;20.70;99.90
63313;DHT22;49442;45.640;13.812;2023-08-12T02:08:37;20.80;99.90
63313;DHT22;49442;45.640;13.812;2023-08-12T02:11:02;20.80;99.90
63313;DHT22;49442;45.640;13.812;2023-08-12T02:13:29;20.70;99.90
63313;DHT22;49442;45.640;13.812;2023-08-12T02:15:55;20.70;99.90
63313;DHT22;49442;45.640;13.812;2023-08-12T02:18:20;20.70;99.90
63313;DHT22;49442;45.640;13.812;2023-08-12T02:20:49;20.60;99.90
63313;DHT22;49442;45.640;13.812;2023-08-12T02:23:15;20.50;99.90
63313;DHT22;49442;45.640;13.812;2023-08-12T02:25:40;20.50;99.90
63313;DHT22;49442;45.640;13.812;2023-08-12T02:28:06;20.40;99.90
63313;DHT22;49442;45.640;13.812;2023-08-12T02:30:31;20.40;99.90
63313;DHT22;49442;45.640;13.812;2023-08-12T02:32:57;20.40;99.90
63313;DHT22;49442;45.640;13.812;2023-08-12T02:35:23;20.40;99.90
63313;DHT22;49442;45.640;13.812;2023-08-12T02:37:49;20.30;99.90
63313;DHT22;49442;45.640;13.812;2023-08-12T02:40:15;20.30;99.90
63313;DHT22;49442;45.640;13.812;2023-08-12T02:42:40;20.40;99.90
63313;DHT22;49442;45.640;13.812;2023-08-12T02:45:06;20.30;99.90
63313;DHT22;49442;45.640;13.812;2023-08-12T02:47:32;20.20;99.90
63313;DHT22;49442;45.640;13.812;2023-08-12T02:49:58;20.20;99.90
63313;DHT22;49442;45.640;13.812;2023-08-12T02:52:23;20.20;99.90
63313;DHT22;49442;45.640;13.812;2023-08-12T02:54:49;20.20;99.90
63313;DHT22;49442;45.640;13.812;2023-08-12T02:57:14;20.20;99.90
63313;DHT22;49442;45.640;13.812;2023-08-12T02:59:40;20.30;99.90
63313;DHT22;49442;45.640;13.812;2023-08-12T03:02:06;20.30;99.90
63313;DHT22;49442;45.640;13.812;2023-08-12T03:04:31;20.20;99.90
63313;DHT22;49442;45.640;13.812;2023-08-12T03:06:57;20.30;99.90
63313;DHT22;49442;45.640;13.812;2023-08-12T03:09:23;20.40;99.90
63313;DHT22;49442;45.640;13.812;2023-08-12T03:11:48;20.30;99.90
63313;DHT22;49442;45.640;13.812;2023-08-12T03:14:14;20.10;99.90
63313;DHT22;49442;45.640;13.812;2023-08-12T03:16:40;20.10;99.90
63313;DHT22;49442;45.640;13.812;2023-08-12T03:19:05;20.20;99.90
63313;DHT22;49442;45.640;13.812;2023-08-12T03:21:31;20.20;99.90
63313;DHT22;49442;45.640;13.812;2023-08-12T03:23:56;20.20;99.90
63313;DHT22;49442;45.640;13.812;2023-08-12T03:26:22;20.20;99.90
63313;DHT22;49442;45.640;13.812;2023-08-12T03:28:48;20.20;99.90
63313;DHT22;49442;45.640;13.812;2023-08-12T03:31:13;20.20;99.90
63313;DHT22;49442;45.640;13.812;2023-08-12T03:33:39;20.10;99.90
63313;DHT22;49442;45.640;13.812;2023-08-12T03:36:05;20.10;99.90
63313;DHT22;49442;45.640;13.812;2023-08-12T03:38:30;20.10;99.90
63313;DHT22;49442;45.640;13.812;2023-08-12T03:40:56;20.20;99.90
63313;DHT22;49442;45.640;13.812;2023-08-12T03:43:21;20.20;99.90
63313;DHT22;49442;45.640;13.812;2023-08-12T03:45:47;20.20;99.90
63313;DHT22;49442;45.640;13.812;2023-08-12T03:48:13;20.20;99.90
63313;DHT22;49442;45.640;13.812;2023-08-12T03:50:40;20.20;99.90
63313;DHT22;49442;45.640;13.812;2023-08-12T03:53:06;20.20;99.90
63313;DHT22;49442;45.640;13.812;2023-08-12T03:55:34;20.10;99.90
63313;DHT22;49442;45.640;13.812;2023-08-12T03:58:00;20.10;99.90
63313;DHT22;49442;45.640;13.812;2023-08-12T04:00:26;20.10;99.90
63313;DHT22;49442;45.640;13.812;2023-08-12T04:02:51;20.10;99.90
63313;DHT22;49442;45.640;13.812;2023-08-12T04:05:17;19.90;99.90
63313;DHT22;49442;45.640;13.812;2023-08-12T04:07:43;19.80;99.90
63313;DHT22;49442;45.640;13.812;2023-08-12T04:10:09;19.80;99.90
63313;DHT22;49442;45.640;13.812;2023-08-12T04:12:35;19.80;99.90
63313;DHT22;49442;45.640;13.812;2023-08-12T04:15:00;19.80;99.90
63313;DHT22;49442;45.640;13.812;2023-08-12T04:17:29;19.80;99.90
63313;DHT22;49442;45.640;13.812;2023-08-12T04:19:55;19.80;99.90
63313;DHT22;49442;45.640;13.812;2023-08-12T04:22:20;19.80;99.90
63313;DHT22;49442;45.640;13.812;2023-08-12T04:24:46;19.70;99.90
63313;DHT22;49442;45.640;13.812;2023-08-12T04:27:12;19.70;99.90
63313;DHT22;49442;45.640;13.812;2023-08-12T04:29:37;19.70;99.90
63313;DHT22;49442;45.640;13.812;2023-08-12T04:32:03;19.80;99.90
63313;DHT22;49442;45.640;13.812;2023-08-12T04:34:29;19.80;99.90
63313;DHT22;49442;45.640;13.812;2023-08-12T04:36:55;19.80;99.90
63313;DHT22;49442;45.640;13.812;2023-08-12T04:39:20;19.80;99.90
63313;DHT22;49442;45.640;13.812;2023-08-12T04:41:47;19.90;99.90
63313;DHT22;49442;45.640;13.812;2023-08-12T04:44:13;19.90;99.90
63313;DHT22;49442;45.640;13.812;2023-08-12T04:46:39;19.90;99.90
63313;DHT22;49442;45.640;13.812;2023-08-12T04:49:04;20.00;99.90
63313;DHT22;49442;45.640;13.812;2023-08-12T04:51:30;20.10;99.90
63313;DHT22;49442;45.640;13.812;2023-08-12T04:53:56;20.10;99.90
63313;DHT22;49442;45.640;13.812;2023-08-12T04:56:22;20.20;99.90
63313;DHT22;49442;45.640;13.812;2023-08-12T04:58:49;20.20;99.90
63313;DHT22;49442;45.640;13.812;2023-08-12T05:01:15;20.10;99.90
63313;DHT22;49442;45.640;13.812;2023-08-12T05:03:41;20.10;99.90
63313;DHT22;49442;45.640;13.812;2023-08-12T05:06:06;20.10;99.90
63313;DHT22;49442;45.640;13.812;2023-08-12T05:08:32;20.10;99.90
63313;DHT22;49442;45.640;13.812;2023-08-12T05:10:58;20.10;99.90
63313;DHT22;49442;45.640;13.812;2023-08-12T05:13:23;20.20;99.90
63313;DHT22;49442;45.640;13.812;2023-08-12T05:15:49;20.20;99.90
63313;DHT22;49442;45.640;13.812;2023-08-12T05:18:15;20.20;99.90
63313;DHT22;49442;45.640;13.812;2023-08-12T05:20:41;20.30;99.90
63313;DHT22;49442;45.640;13.812;2023-08-12T05:23:08;20.40;99.90
63313;DHT22;49442;45.640;13.812;2023-08-12T05:25:34;20.40;99.90
63313;DHT22;49442;45.640;13.812;2023-08-12T05:27:59;20.50;99.90
63313;DHT22;49442;45.640;13.812;2023-08-12T05:30:25;20.60;99.90
63313;DHT22;49442;45.640;13.812;2023-08-12T05:32:51;20.60;99.90
63313;DHT22;49442;45.640;13.812;2023-08-12T05:35:17;20.60;99.90
63313;DHT22;49442;45.640;13.812;2023-08-12T05:37:42;20.70;99.90
63313;DHT22;49442;45.640;13.812;2023-08-12T05:40:08;20.70;99.90
63313;DHT22;49442;45.640;13.812;2023-08-12T05:42:35;20.80;99.90
63313;DHT22;49442;45.640;13.812;2023-08-12T05:45:01;20.80;99.90
63313;DHT22;49442;45.640;13.812;2023-08-12T05:47:26;20.90;99.90
63313;DHT22;49442;45.640;13.812;2023-08-12T05:49:53;20.90;99.90
63313;DHT22;49442;45.640;13.812;2023-08-12T05:52:18;21.00;99.90
63313;DHT22;49442;45.640;13.812;2023-08-12T05:54:44;21.00;99.90
63313;DHT22;49442;45.640;13.812;2023-08-12T05:57:10;21.10;99.90
63313;DHT22;49442;45.640;13.812;2023-08-12T05:59:35;21.20;99.90
63313;DHT22;49442;45.640;13.812;2023-08-12T06:02:01;21.20;99.90
63313;DHT22;49442;45.640;13.812;2023-08-12T06:04:27;21.40;99.90
63313;DHT22;49442;45.640;13.812;2023-08-12T06:06:52;21.50;99.90
63313;DHT22;49442;45.640;13.812;2023-08-12T06:09:18;21.70;99.90
63313;DHT22;49442;45.640;13.812;2023-08-12T06:11:44;21.70;99.90
63313;DHT22;49442;45.640;13.812;2023-08-12T06:14:09;21.80;99.90
63313;DHT22;49442;45.640;13.812;2023-08-12T06:16:35;22.00;99.90
63313;DHT22;49442;45.640;13.812;2023-08-12T06:19:01;22.10;99.90
63313;DHT22;49442;45.640;13.812;2023-08-12T06:21:27;22.10;99.90
63313;DHT22;49442;45.640;13.812;2023-08-12T06:23:52;22.20;99.90
63313;DHT22;49442;45.640;13.812;2023-08-12T06:26:18;22.20;99.90
63313;DHT22;49442;45.640;13.812;2023-08-12T06:28:43;22.30;99.90
63313;DHT22;49442;45.640;13.812;2023-08-12T06:31:09;22.40;99.90
63313;DHT22;49442;45.640;13.812;2023-08-12T06:33:35;22.40;99.90
63313;DHT22;49442;45.640;13.812;2023-08-12T06:36:00;22.50;99.90
63313;DHT22;49442;45.640;13.812;2023-08-12T06:38:26;22.60;99.90
63313;DHT22;49442;45.640;13.812;2023-08-12T06:40:52;22.70;99.90
63313;DHT22;49442;45.640;13.812;2023-08-12T06:43:17;22.80;99.90
63313;DHT22;49442;45.640;13.812;2023-08-12T06:45:43;22.90;99.90
63313;DHT22;49442;45.640;13.812;2023-08-12T06:48:09;22.90;99.90
63313;DHT22;49442;45.640;13.812;2023-08-12T06:50:34;23.00;99.90
63313;DHT22;49442;45.640;13.812;2023-08-12T06:53:00;23.10;99.90
63313;DHT22;49442;45.640;13.812;2023-08-12T06:55:25;23.20;99.90
63313;DHT22;49442;45.640;13.812;2023-08-12T06:57:51;23.30;99.90
63313;DHT22;49442;45.640;13.812;2023-08-12T07:00:17;23.40;99.90
63313;DHT22;49442;45.640;13.812;2023-08-12T07:02:42;23.50;99.90
63313;DHT22;49442;45.640;13.812;2023-08-12T07:05:08;23.60;99.90
63313;DHT22;49442;45.640;13.812;2023-08-12T07:07:34;23.70;99.90
63313;DHT22;49442;45.640;13.812;2023-08-12T07:10:00;23.70;99.90
63313;DHT22;49442;45.640;13.812;2023-08-12T07:12:26;23.80;99.90
63313;DHT22;49442;45.640;13.812;2023-08-12T07:14:52;23.90;99.90
63313;DHT22;49442;45.640;13.812;2023-08-12T07:17:18;24.00;99.90
63313;DHT22;49442;45.640;13.812;2023-08-12T07:19:43;24.00;99.90
63313;DHT22;49442;45.640;13.812;2023-08-12T07:22:09;24.00;99.90
63313;DHT22;49442;45.640;13.812;2023-08-12T07:24:34;24.10;99.90
63313;DHT22;49442;45.640;13.812;2023-08-12T07:27:00;24.20;99.90
63313;DHT22;49442;45.640;13.812;2023-08-12T07:29:26;24.30;99.90
63313;DHT22;49442;45.640;13.812;2023-08-12T07:31:52;24.40;99.90
63313;DHT22;49442;45.640;13.812;2023-08-12T07:34:18;24.50;99.90
63313;DHT22;49442;45.640;13.812;2023-08-12T07:36:44;24.50;99.90
63313;DHT22;49442;45.640;13.812;2023-08-12T07:39:09;24.60;99.90
63313;DHT22;49442;45.640;13.812;2023-08-12T07:41:35;24.70;99.90
63313;DHT22;49442;45.640;13.812;2023-08-12T07:44:01;24.80;99.90
63313;DHT22;49442;45.640;13.812;2023-08-12T07:46:28;24.70;99.90
63313;DHT22;49442;45.640;13.812;2023-08-12T07:48:55;24.70;99.90
63313;DHT22;49442;45.640;13.812;2023-08-12T07:51:21;24.90;99.90
63313;DHT22;49442;45.640;13.812;2023-08-12T07:53:47;24.90;99.90
63313;DHT22;49442;45.640;13.812;2023-08-12T07:56:12;25.00;99.90
63313;DHT22;49442;45.640;13.812;2023-08-12T07:58:38;25.10;99.90
63313;DHT22;49442;45.640;13.812;2023-08-12T08:01:04;25.00;99.90
63313;DHT22;49442;45.640;13.812;2023-08-12T08:03:30;25.00;99.90
63313;DHT22;49442;45.640;13.812;2023-08-12T08:05:56;25.10;99.90
63313;DHT22;49442;45.640;13.812;2023-08-12T08:08:22;25.20;99.90
63313;DHT22;49442;45.640;13.812;2023-08-12T08:10:48;25.20;99.90
63313;DHT22;49442;45.640;13.812;2023-08-12T08:13:13;25.20;99.90
63313;DHT22;49442;45.640;13.812;2023-08-12T08:15:39;25.20;99.90
63313;DHT22;49442;45.640;13.812;2023-08-12T08:18:05;25.20;99.90
63313;DHT22;49442;45.640;13.812;2023-08-12T08:20:31;25.20;99.90
63313;DHT22;49442;45.640;13.812;2023-08-12T08:22:56;25.10;99.90
63313;DHT22;49442;45.640;13.812;2023-08-12T08:25:22;25.20;99.90
63313;DHT22;49442;45.640;13.812;2023-08-12T08:27:48;25.10;99.90
63313;DHT22;49442;45.640;13.812;2023-08-12T08:30:14;25.20;99.90
63313;DHT22;49442;45.640;13.812;2023-08-12T08:32:40;25.20;99.90
63313;DHT22;49442;45.640;13.812;2023-08-12T08:35:06;25.20;99.90
63313;DHT22;49442;45.640;13.812;2023-08-12T08:37:32;25.20;99.90
63313;DHT22;49442;45.640;13.812;2023-08-12T08:39:57;25.20;99.90
63313;DHT22;49442;45.640;13.812;2023-08-12T08:42:24;25.30;99.90
63313;DHT22;49442;45.640;13.812;2023-08-12T08:44:52;25.30;99.90
63313;DHT22;49442;45.640;13.812;2023-08-12T08:47:27;25.50;99.90
63313;DHT22;49442;45.640;13.812;2023-08-12T08:49:56;25.50;99.90
63313;DHT22;49442;45.640;13.812;2023-08-12T08:52:25;25.60;99.90
63313;DHT22;49442;45.640;13.812;2023-08-12T08:54:51;25.60;99.90
63313;DHT22;49442;45.640;13.812;2023-08-12T08:57:18;25.40;99.90
63313;DHT22;49442;45.640;13.812;2023-08-12T08:59:45;25.50;99.90
63313;DHT22;49442;45.640;13.812;2023-08-12T09:02:16;25.50;99.90
63313;DHT22;49442;45.640;13.812;2023-08-12T09:04:42;25.50;99.90
63313;DHT22;49442;45.640;13.812;2023-08-12T09:07:08;25.30;99.90
63313;DHT22;49442;45.640;13.812;2023-08-12T09:09:34;25.30;99.90
63313;DHT22;49442;45.640;13.812;2023-08-12T09:12:02;25.50;99.90
63313;DHT22;49442;45.640;13.812;2023-08-12T09:14:28;25.60;99.90
63313;DHT22;49442;45.640;13.812;2023-08-12T09:16:55;25.50;99.90
63313;DHT22;49442;45.640;13.812;2023-08-12T09:19:22;25.60;99.90
63313;DHT22;49442;45.640;13.812;2023-08-12T09:21:54;25.60;99.90
63313;DHT22;49442;45.640;13.812;2023-08-12T09:24:26;25.80;99.90
63313;DHT22;49442;45.640;13.812;2023-08-12T09:26:53;25.70;99.90
63313;DHT22;49442;45.640;13.812;2023-08-12T09:29:31;25.70;99.90
63313;DHT22;49442;45.640;13.812;2023-08-12T09:32:11;25.60;99.90
63313;DHT22;49442;45.640;13.812;2023-08-12T09:34:43;25.70;99.90
63313;DHT22;49442;45.640;13.812;2023-08-12T09:37:12;25.70;99.90
63313;DHT22;49442;45.640;13.812;2023-08-12T09:39:38;25.80;99.90
63313;DHT22;49442;45.640;13.812;2023-08-12T09:42:04;25.80;99.90
63313;DHT22;49442;45.640;13.812;2023-08-12T09:44:31;25.80;99.90
63313;DHT22;49442;45.640;13.812;2023-08-12T09:46:59;25.90;99.90
63313;DHT22;49442;45.640;13.812;2023-08-12T09:49:26;25.90;99.90
63313;DHT22;49442;45.640;13.812;2023-08-12T09:51:53;25.80;99.90
63313;DHT22;49442;45.640;13.812;2023-08-12T09:54:18;25.80;99.90
63313;DHT22;49442;45.640;13.812;2023-08-12T09:56:48;25.90;99.90
63313;DHT22;49442;45.640;13.812;2023-08-12T09:59:19;26.00;99.90
63313;DHT22;49442;45.640;13.812;2023-08-12T10:01:49;26.00;99.90
63313;DHT22;49442;45.640;13.812;2023-08-12T10:04:18;26.10;99.90
63313;DHT22;49442;45.640;13.812;2023-08-12T10:06:47;26.00;99.90
63313;DHT22;49442;45.640;13.812;2023-08-12T10:09:15;26.00;99.90
63313;DHT22;49442;45.640;13.812;2023-08-12T10:11:42;26.10;99.90
63313;DHT22;49442;45.640;13.812;2023-08-12T10:14:09;26.10;99.90
63313;DHT22;49442;45.640;13.812;2023-08-12T10:16:36;26.00;99.90
63313;DHT22;49442;45.640;13.812;2023-08-12T10:19:04;26.00;99.90
63313;DHT22;49442;45.640;13.812;2023-08-12T10:21:31;25.80;99.90
63313;DHT22;49442;45.640;13.812;2023-08-12T10:23:58;26.00;99.90
63313;DHT22;49442;45.640;13.812;2023-08-12T10:26:25;26.00;99.90
63313;DHT22;49442;45.640;13.812;2023-08-12T10:28:51;26.10;99.90
63313;DHT22;49442;45.640;13.812;2023-08-12T10:31:17;26.20;99.90
63313;DHT22;49442;45.640;13.812;2023-08-12T10:33:44;26.20;99.90
63313;DHT22;49442;45.640;13.812;2023-08-12T10:36:09;26.30;99.90
63313;DHT22;49442;45.640;13.812;2023-08-12T10:38:36;26.30;99.90
63313;DHT22;49442;45.640;13.812;2023-08-12T10:41:18;26.20;99.90
63313;DHT22;49442;45.640;13.812;2023-08-12T10:46:41;26.20;99.90
63313;DHT22;49442;45.640;13.812;2023-08-12T10:49:15;26.30;99.90
63313;DHT22;49442;45.640;13.812;2023-08-12T10:51:54;26.40;99.90
63313;DHT22;49442;45.640;13.812;2023-08-12T10:54:21;26.40;99.90
63313;DHT22;49442;45.640;13.812;2023-08-12T11:05:09;26.40;99.90
63313;DHT22;49442;45.640;13.812;2023-08-12T11:10:20;26.40;99.90
63313;DHT22;49442;45.640;13.812;2023-08-12T11:15:35;26.30;99.90
63313;DHT22;49442;45.640;13.812;2023-08-12T11:18:09;26.40;99.90
63313;DHT22;49442;45.640;13.812;2023-08-12T11:20:36;26.50;99.90
63313;DHT22;49442;45.640;13.812;2023-08-12T11:23:07;26.60;99.90
63313;DHT22;49442;45.640;13.812;2023-08-12T11:25:33;26.50;99.90
63313;DHT22;49442;45.640;13.812;2023-08-12T11:28:00;26.50;99.90
63313;DHT22;49442;45.640;13.812;2023-08-12T11:30:26;26.60;99.90
63313;DHT22;49442;45.640;13.812;2023-08-12T11:32:53;26.70;99.90
63313;DHT22;49442;45.640;13.812;2023-08-12T11:35:21;26.60;99.90
63313;DHT22;49442;45.640;13.812;2023-08-12T11:37:48;26.60;99.90
63313;DHT22;49442;45.640;13.812;2023-08-12T11:40:16;26.60;99.90
63313;DHT22;49442;45.640;13.812;2023-08-12T11:42:44;26.70;99.90
63313;DHT22;49442;45.640;13.812;2023-08-12T11:45:11;26.70;99.90
63313;DHT22;49442;45.640;13.812;2023-08-12T11:47:38;26.70;99.90
63313;DHT22;49442;45.640;13.812;2023-08-12T11:50:05;26.70;99.90
63313;DHT22;49442;45.640;13.812;2023-08-12T11:52:31;26.70;99.90
63313;DHT22;49442;45.640;13.812;2023-08-12T11:54:57;26.80;99.90
63313;DHT22;49442;45.640;13.812;2023-08-12T11:57:23;26.80;99.90
63313;DHT22;49442;45.640;13.812;2023-08-12T11:59:57;26.80;99.90
63313;DHT22;49442;45.640;13.812;2023-08-12T12:02:24;26.90;99.90
63313;DHT22;49442;45.640;13.812;2023-08-12T12:04:54;26.90;99.90
63313;DHT22;49442;45.640;13.812;2023-08-12T12:07:23;26.80;99.90
63313;DHT22;49442;45.640;13.812;2023-08-12T12:09:53;26.80;99.90
63313;DHT22;49442;45.640;13.812;2023-08-12T12:12:25;26.80;99.90
63313;DHT22;49442;45.640;13.812;2023-08-12T12:14:53;26.80;99.90
63313;DHT22;49442;45.640;13.812;2023-08-12T12:17:23;26.80;99.90
63313;DHT22;49442;45.640;13.812;2023-08-12T12:19:59;26.90;99.90
63313;DHT22;49442;45.640;13.812;2023-08-12T12:22:29;26.90;99.90
63313;DHT22;49442;45.640;13.812;2023-08-12T12:24:58;26.80;99.90
63313;DHT22;49442;45.640;13.812;2023-08-12T12:27:25;26.80;99.90
63313;DHT22;49442;45.640;13.812;2023-08-12T12:29:51;26.80;99.90
63313;DHT22;49442;45.640;13.812;2023-08-12T12:32:20;26.90;99.90
63313;DHT22;49442;45.640;13.812;2023-08-12T12:34:47;26.80;99.90
63313;DHT22;49442;45.640;13.812;2023-08-12T12:37:13;26.80;99.90
63313;DHT22;49442;45.640;13.812;2023-08-12T12:39:40;26.80;99.90
63313;DHT22;49442;45.640;13.812;2023-08-12T12:42:06;27.00;99.90
63313;DHT22;49442;45.640;13.812;2023-08-12T12:44:32;27.00;99.90
63313;DHT22;49442;45.640;13.812;2023-08-12T12:46:58;26.90;99.90
63313;DHT22;49442;45.640;13.812;2023-08-12T12:49:23;26.90;99.90
63313;DHT22;49442;45.640;13.812;2023-08-12T12:51:49;26.70;99.90
63313;DHT22;49442;45.640;13.812;2023-08-12T12:54:15;26.70;99.90
63313;DHT22;49442;45.640;13.812;2023-08-12T12:56:41;26.60;99.90
63313;DHT22;49442;45.640;13.812;2023-08-12T12:59:06;26.70;99.90
63313;DHT22;49442;45.640;13.812;2023-08-12T13:01:33;26.90;99.90
63313;DHT22;49442;45.640;13.812;2023-08-12T13:03:58;26.90;99.90
63313;DHT22;49442;45.640;13.812;2023-08-12T13:06:24;26.80;99.90
63313;DHT22;49442;45.640;13.812;2023-08-12T13:08:50;27.00;99.90
63313;DHT22;49442;45.640;13.812;2023-08-12T13:11:16;27.10;99.90
63313;DHT22;49442;45.640;13.812;2023-08-12T13:13:42;27.20;99.90
63313;DHT22;49442;45.640;13.812;2023-08-12T13:16:07;27.20;99.90
63313;DHT22;49442;45.640;13.812;2023-08-12T13:18:34;27.20;99.90
63313;DHT22;49442;45.640;13.812;2023-08-12T13:20:59;27.20;99.90
63313;DHT22;49442;45.640;13.812;2023-08-12T13:23:26;27.10;99.90
63313;DHT22;49442;45.640;13.812;2023-08-12T13:25:52;27.20;99.90
63313;DHT22;49442;45.640;13.812;2023-08-12T13:28:18;27.20;99.90
63313;DHT22;49442;45.640;13.812;2023-08-12T13:30:45;27.20;99.90
63313;DHT22;49442;45.640;13.812;2023-08-12T13:33:11;27.20;99.90
63313;DHT22;49442;45.640;13.812;2023-08-12T13:35:37;27.10;99.90
63313;DHT22;49442;45.640;13.812;2023-08-12T13:38:03;27.10;99.90
63313;DHT22;49442;45.640;13.812;2023-08-12T13:40:29;27.20;99.90
63313;DHT22;49442;45.640;13.812;2023-08-12T13:42:55;27.20;99.90
63313;DHT22;49442;45.640;13.812;2023-08-12T13:45:20;27.30;99.90
63313;DHT22;49442;45.640;13.812;2023-08-12T13:47:46;27.40;99.90
63313;DHT22;49442;45.640;13.812;2023-08-12T13:50:12;27.30;99.90
63313;DHT22;49442;45.640;13.812;2023-08-12T13:52:39;27.30;99.90
63313;DHT22;49442;45.640;13.812;2023-08-12T13:55:05;27.40;99.90
63313;DHT22;49442;45.640;13.812;2023-08-12T13:57:31;27.40;99.90
63313;DHT22;49442;45.640;13.812;2023-08-12T13:59:57;27.40;99.90
63313;DHT22;49442;45.640;13.812;2023-08-12T14:02:22;27.00;99.90
63313;DHT22;49442;45.640;13.812;2023-08-12T14:04:48;27.00;99.90
63313;DHT22;49442;45.640;13.812;2023-08-12T14:07:17;27.20;99.90
63313;DHT22;49442;45.640;13.812;2023-08-12T14:09:46;27.20;99.90
63313;DHT22;49442;45.640;13.812;2023-08-12T14:12:12;27.30;99.90
63313;DHT22;49442;45.640;13.812;2023-08-12T14:14:37;27.20;99.90
63313;DHT22;49442;45.640;13.812;2023-08-12T14:17:03;27.30;99.90
63313;DHT22;49442;45.640;13.812;2023-08-12T14:19:29;27.40;99.90
63313;DHT22;49442;45.640;13.812;2023-08-12T14:21:54;27.30;99.90
63313;DHT22;49442;45.640;13.812;2023-08-12T14:24:20;27.40;99.90
63313;DHT22;49442;45.640;13.812;2023-08-12T14:26:46;27.20;99.90
63313;DHT22;49442;45.640;13.812;2023-08-12T14:29:12;27.20;99.90
63313;DHT22;49442;45.640;13.812;2023-08-12T14:31:38;27.00;99.90
63313;DHT22;49442;45.640;13.812;2023-08-12T14:34:03;27.10;99.90
63313;DHT22;49442;45.640;13.812;2023-08-12T14:36:29;27.10;99.90
63313;DHT22;49442;45.640;13.812;2023-08-12T14:38:55;26.90;99.90
63313;DHT22;49442;45.640;13.812;2023-08-12T14:41:21;26.90;99.90
63313;DHT22;49442;45.640;13.812;2023-08-12T14:43:46;26.90;99.90
63313;DHT22;49442;45.640;13.812;2023-08-12T14:46:12;27.00;99.90
63313;DHT22;49442;45.640;13.812;2023-08-12T14:48:38;27.10;99.90
63313;DHT22;49442;45.640;13.812;2023-08-12T14:51:03;27.10;99.90
63313;DHT22;49442;45.640;13.812;2023-08-12T14:53:29;27.10;99.90
63313;DHT22;49442;45.640;13.812;2023-08-12T14:55:55;27.10;99.90
63313;DHT22;49442;45.640;13.812;2023-08-12T14:58:20;27.10;99.90
63313;DHT22;49442;45.640;13.812;2023-08-12T15:00:47;27.20;99.90
63313;DHT22;49442;45.640;13.812;2023-08-12T15:03:12;27.10;99.90
63313;DHT22;49442;45.640;13.812;2023-08-12T15:05:40;27.20;99.90
63313;DHT22;49442;45.640;13.812;2023-08-12T15:08:06;27.20;99.90
63313;DHT22;49442;45.640;13.812;2023-08-12T15:10:32;27.20;99.90
63313;DHT22;49442;45.640;13.812;2023-08-12T15:12:58;27.10;99.90
63313;DHT22;49442;45.640;13.812;2023-08-12T15:15:23;27.00;99.90
63313;DHT22;49442;45.640;13.812;2023-08-12T15:17:49;27.10;99.90
63313;DHT22;49442;45.640;13.812;2023-08-12T15:20:15;27.10;99.90
63313;DHT22;49442;45.640;13.812;2023-08-12T15:22:40;27.00;99.90
63313;DHT22;49442;45.640;13.812;2023-08-12T15:25:06;26.90;99.90
63313;DHT22;49442;45.640;13.812;2023-08-12T15:27:33;26.90;99.90